茨城空港(百里飛行場)の過去48時間の天気

茨城空港(百里飛行場) (Hyakuri)

現在時刻: 9/19 08:31 JST (9/18 23:31 UTC) 以下の時間は現地時間です。

過去48時間のMETAR気象情報
時間 風向 風速(m/s) 視程 気温(℃) 湿度(%) 気圧(hPa) 天気現象
19 08:00 北北東 7 10km以上 23 78 1012
19 07:00 北北東 6 10km以上 22 88 1011
19 06:42 北北東 6 10km以上 22 88 1011
19 06:00 北北東 6 10km以上 22 88 1011
19 05:00 北東 7 10km以上 22 88 1009
19 04:00 北東 7 10km以上 22 88 1009
19 03:00 北東 8 10km以上 22 94 1008 弱いしゅう雨
19 02:50 北東 8 8000m 22 94 1008 弱いしゅう雨
19 02:00 北東 6 6000m 22 94 1008 弱いしゅう雨
19 01:23 北東 6 6000m 22 94 1008 弱いしゅう雨
19 01:00 北東 5 8000m 23 94 1007 弱いしゅう雨
19 00:17 8 3000m 23 94 1007 弱いしゅう雨 もや
19 00:00 5 3000m 23 94 1007 弱いしゅう雨 もや
18 23:42 4 3000m 23 100 1007 弱いしゅう雨 もや
18 23:11 北北西 4 2000m 24 94 1007 しゅう雨 もや
18 23:00 南西 3 2500m 24 100 1007 弱いしゅう雨 もや
18 22:36 4 3000m 25 94 1006 弱いしゅう雨 もや
18 22:06 4 2500m 25 94 1006 しゅう雨 もや
18 22:00 4 3000m 25 94 1006 弱いしゅう雨 もや
18 21:22 南南東 3 5000m 24 94 1006 弱いしゅう雨 もや
18 21:04 南東 2 8000m 25 94 1006 弱いしゅう雨
18 21:00 南南東 2 10km以上 25 94 1007
18 20:00 南南東 2 10km以上 25 94 1007
18 19:00 南東 2 10km以上 24 94 1006
18 18:00 不定 1 10km以上 24 94 1006
18 17:18 2 8000m 24 94 1006 弱いしゅう雨
18 17:00 2 8000m 25 89 1006 弱いしゅう雨
18 16:48 3 10km以上 25 89 1006 弱いしゅう雨
18 16:00 4 10km以上 25 94 1005
18 15:40 4 8000m 25 94 1005
18 15:14 南南西 5 5000m 24 94 1006 弱いしゅう雨 もや
18 15:00 6 1000m 24 94 1005 強いしゅう雨 もや
18 14:47 7 1000m 24 94 1006 強いしゅう雨 もや
18 14:00 5 1200m 25 94 1006 強いしゅう雨 もや
18 13:45 5 1500m 25 94 1006 しゅう雨 もや
18 13:37 5 2000m 25 94 1006 弱いしゅう雨 もや
18 13:30 5 3000m 25 94 1006 弱いしゅう雨 もや
18 13:00 6 8000m 25 94 1006 弱いしゅう雨
18 12:00 6 5000m 25 94 1007 弱いしゅう雨 もや
18 11:04 7 3000m 24 94 1008 弱いしゅう雨 もや
18 11:00 6 5000m 24 94 1008 弱いしゅう雨 もや
18 10:32 7 8000m 24 94 1008 弱いしゅう雨
18 10:00 5 1500m 23 94 1008 強いしゅう雨 もや
18 09:50 5 1500m 24 89 1008 強いしゅう雨 もや
18 09:26 7 2000m 23 94 1009 しゅう雨 もや
18 09:00 南南東 6 2500m 23 94 1009 しゅう雨 もや
18 08:21 5 3000m 23 94 1009 しゅう雨 もや
18 08:00 南南東 4 4000m 23 89 1009 しゅう雨 もや
18 07:48 4 4000m 23 89 1009 しゅう雨 もや
18 07:03 6 4000m 23 89 1009 しゅう雨 もや
18 07:00 南南東 5 5000m 23 89 1009 弱いしゅう雨 もや
18 06:30 南南東 4 5000m 23 89 1009 弱いしゅう雨 もや
18 06:00 南東 4 6000m 22 94 1009 弱いしゅう雨
18 05:00 南南東 5 6000m 22 94 1010 弱いしゅう雨
RJAH 182300Z 03013KT 9999 FEW008 BKN012 23/19 Q1012
RJAH 182200Z 03011KT 9999 FEW005 BKN010 BKN080 22/20 Q1011
RJAH 182142Z 03011KT 9999 FEW005 BKN010 BKN080 22/20 Q1011 RMK 1ST005 5ST010 7AC080 A2987
RJAH 182100Z 03011KT 9999 FEW005 SCT010 BKN080 22/20 Q1011
RJAH 182000Z 04014KT 9999 FEW005 SCT015 BKN080 22/20 Q1009
RJAH 181900Z 04013KT 9999 FEW005 BKN015 BKN080 22/20 Q1009
RJAH 181800Z 04016KT 9999 -SHRA FEW003 BKN005 BKN015 22/21 Q1008
RJAH 181750Z 04015G25KT 8000 -SHRA FEW003 BKN005 BKN015 22/21 Q1008 RMK 1ST003 5ST005 7CU015 A2979
RJAH 181700Z 05011KT 6000 -SHRA FEW003 BKN005 BKN015 22/21 Q1008
RJAH 181623Z 04011KT 6000 -SHRA FEW003 BKN005 BKN015 22/21 Q1008 RMK 1ST003 5ST005 7CU015 A2977
RJAH 181600Z 04009KT 8000 -SHRA SCT005 BKN020 BKN040 23/22 Q1007
RJAH 181517Z 01016G26KT 3000 -SHRA BR FEW003 BKN005 BKN020 23/22 Q1007 RMK 1ST003 5ST005 7CU020 A2975
RJAH 181500Z 36009KT 3000 -SHRA BR FEW003 BKN005 BKN020 23/22 Q1007
RJAH 181442Z 35008KT 3000 -SHRA BR FEW003 BKN005 BKN015 23/23 Q1007 RMK 2ST003 5ST005 7CU015 A2974 VIS SW 2500M
RJAH 181411Z 34008KT 2000 SHRA BR SCT003 BKN005 BKN012 24/23 Q1007 RMK 3ST003 5ST005 7CU012 A2974 VIS S-SW 1500M
RJAH 181400Z 22005KT 2500 -SHRA BR SCT003 BKN005 BKN012 24/24 Q1007
RJAH 181336Z 19007KT 3000 -SHRA BR SCT003 BKN005 BKN012 25/24 Q1006 RMK 3ST003 6ST005 7CU012 A2973 VIS SW 2500M
RJAH 181306Z 18007KT 2500 SHRA BR SCT003 BKN005 BKN012 25/24 Q1006 RMK 3ST003 6ST005 7CU012 A2973 VIS S-SW 2000M
RJAH 181300Z 17008KT 3000 -SHRA BR FEW003 BKN005 BKN012 25/24 Q1006
RJAH 181222Z 16006KT 5000 -SHRA BR FEW005 BKN006 BKN015 24/23 Q1006 RMK 1ST005 5ST006 7CU015 A2973 VIS S-SW 3000M
RJAH 181204Z 14004KT 8000 -SHRA SCT006 BKN015 BKN025 25/24 Q1006 RMK 3ST006 6CU015 7CU025 A2973 VIS SW 5KM
RJAH 181200Z 15004KT 9999 FEW015 BKN020 BKN030 25/24 Q1007
RJAH 181100Z 15004KT 9999 FEW015 BKN030 BKN120 25/24 Q1007
RJAH 181000Z 13003KT 9999 FEW015 BKN040 BKN130 24/23 Q1006
RJAH 180900Z VRB01KT 9999 FEW012 SCT015 BKN050 24/23 Q1006
RJAH 180818Z 17003KT 8000 -SHRA FEW012 SCT020 BKN050 24/23 Q1006 RMK 1CU012 3CU020 7SC050 A2972
RJAH 180800Z 18004KT 8000 -SHRA FEW012 BKN020 25/23 Q1006
RJAH 180748Z 17005KT 9999 -SHRA FEW012 BKN020 25/23 Q1006 RMK 1CU012 7CU020 A2972
RJAH 180700Z 19007KT 9999 FEW008 SCT040 BKN100 25/24 Q1005 RERA
RJAH 180640Z 18008KT 8000 FEW008 SCT012 BKN100 25/24 Q1005 RERA RMK 2ST008 3CU012 7AC100 A2970
RJAH 180614Z 20009KT 5000 -SHRA BR FEW005 BKN008 BKN012 24/23 Q1006 RMK 1ST005 5ST008 5CU012 A2971 VIS S-W 8KM
RJAH 180600Z 18012KT 1000 R21/1100VP1800D +SHRA BR FEW005 BKN008 BKN012 24/23 Q1005
RJAH 180547Z 17013KT 1000 R21/1100VP1800N +SHRA BR FEW005 BKN008 BKN012 24/23 Q1006 RMK 1ST005 5ST008 7CU012 A2971 R1400 RI++
RJAH 180500Z 17010KT 1200 R21/1600D +SHRA BR FEW005 BKN008 BKN012 25/24 Q1006
RJAH 180445Z 17010KT 1500 R21/P1800N SHRA BR FEW005 BKN008 BKN012 25/24 Q1006 RMK 1ST005 5ST008 7CU012 A2971 VIS S-SW 1200M
RJAH 180437Z 18009KT 2000 -SHRA BR FEW005 BKN008 BKN012 25/24 Q1006 RMK 1ST005 5ST008 7CU012 A2972 VIS S-SW 1500M
RJAH 180430Z 18010KT 3000 -SHRA BR FEW005 BKN008 BKN012 25/24 Q1006 RMK 1ST005 5ST008 7CU012 A2972 VIS S-W 2000M
RJAH 180400Z 18011KT 8000 -SHRA FEW005 BKN008 BKN012 25/24 Q1006
RJAH 180300Z 17011KT 5000 -SHRA BR FEW005 BKN008 BKN012 25/24 Q1007
RJAH 180204Z 18013KT 3000 -SHRA BR FEW005 BKN008 BKN012 24/23 Q1008 RMK 1ST005 5ST008 7CU012 A2977 VIS S-SW 2000M
RJAH 180200Z 18012KT 5000 -SHRA BR FEW005 BKN008 BKN012 24/23 Q1008
RJAH 180132Z 17013KT 8000 -SHRA FEW005 BKN008 BKN012 24/23 Q1008 RMK 1ST005 5ST008 5CU012 A2978 VIS N-NE 5KM
RJAH 180100Z 17010KT 1500 R21/1000VP1800D +SHRA BR FEW005 BKN008 BKN012 23/22 Q1008
RJAH 180050Z 17010KT 1500 R21/P1800N +SHRA BR FEW005 BKN008 BKN012 24/22 Q1008 RMK 1ST005 5ST008 7CU012 A2979 VIS S-W 1200M
RJAH 180026Z 17013KT 2000 SHRA BR SCT008 BKN012 23/22 Q1009 RMK 3ST008 7CU012 A2980 MAX WIND 20KT VIS S-W 1200M
RJAH 180000Z 16012KT 2500 SHRA BR SCT008 BKN012 23/22 Q1009
RJAH 172321Z 17009KT 3000 SHRA BR SCT008 BKN012 23/22 Q1009 RMK 4ST008 7CU012 A2981 VIS S-W 2500M
RJAH 172300Z 16008KT 4000 SHRA BR FEW008 BKN012 23/21 Q1009
RJAH 172248Z 17008KT 4000 SHRA BR FEW008 BKN012 23/21 Q1009 RMK 1ST008 7CU012 A2981 VIS NW-N 3000M
RJAH 172203Z 17012KT 130V190 4000 SHRA BR FEW010 BKN015 BKN025 23/21 Q1009 RMK 2CU010 5CU015 7CU025 A2982 MAX WIND 21KT RWY21 16012G21KT VIS W-N 2500M
RJAH 172200Z 16010KT 5000 -SHRA BR SCT015 BKN025 BKN040 23/21 Q1009
RJAH 172130Z 16008KT 5000 -SHRA BR FEW015 BKN025 BKN050 23/21 Q1009 RMK 1CU015 5CU025 7SC050 A2981 VIS N-NE 3000M
RJAH 172100Z 14007KT 6000 -SHRA FEW015 BKN030 BKN050 22/21 Q1009
RJAH 172000Z 15009KT 6000 -SHRA FEW015 BKN030 BKN050 22/21 Q1010